Time;durP1;ratioP1;P1;durP2;ratioP2;P2;SDS_P1;SDS_P2;PMS_P1;PMS_P2;Temp;Humidity;BMP_temperature;BMP_pressure;BME280_temperature;BME280_humidity;BME280_pressure;Samples;Min_cycle;Max_cycle;Signal;HPM_P1;HPM_P2
2022/08/12 00:44:22;;;;;;;0.00;0.00;;;20.10;75.40;;;;;;5070345;28;20087;-66
2022/08/12 00:46:57;;;;;;;0.10;0.10;;;20.10;75.70;;;;;;5070271;28;20052;-66
2022/08/12 00:49:24;;;;;;;0.00;0.00;;;20.10;75.60;;;;;;5050068;28;21608;-66
2022/08/12 00:52:10;;;;;;;0.00;0.00;;;20.10;76.00;;;;;;5050359;28;20529;-66
2022/08/12 00:54:49;;;;;;;0.00;0.00;;;20.10;76.10;;;;;;5049872;28;20053;-66
2022/08/12 00:57:27;;;;;;;0.10;0.10;;;20.10;76.20;;;;;;5051607;28;20037;-66
2022/08/12 01:00:04;;;;;;;0.00;0.00;;;20.00;76.40;;;;;;5070041;28;20048;-66
2022/08/12 01:02:33;;;;;;;0.00;0.00;;;20.00;76.60;;;;;;5032680;28;20033;-66
2022/08/12 01:13:21;;;;;;;0.00;0.00;;;19.90;77.30;;;;;;5070490;28;20052;-66
2022/08/12 01:15:51;;;;;;;0.00;0.00;;;19.80;77.10;;;;;;5050021;28;20045;-66
2022/08/12 01:18:20;;;;;;;0.00;0.00;;;19.80;77.20;;;;;;5049921;28;20037;-66
2022/08/12 01:20:51;;;;;;;0.00;0.00;;;19.70;76.90;;;;;;5064831;28;20052;-67
2022/08/12 01:23:44;;;;;;;0.00;0.00;;;19.70;77.30;;;;;;5069624;28;20679;-66
2022/08/12 01:26:22;;;;;;;0.00;0.00;;;19.70;77.50;;;;;;5068044;28;20044;-66
2022/08/12 01:28:50;;;;;;;0.15;0.15;;;19.60;77.70;;;;;;5049739;28;20701;-66
2022/08/12 01:31:17;;;;;;;0.00;0.00;;;19.60;77.60;;;;;;5049812;28;20045;-66
2022/08/12 01:33:56;;;;;;;0.00;0.00;;;19.60;77.70;;;;;;5049464;28;20041;-67
2022/08/12 01:36:25;;;;;;;0.00;0.00;;;19.60;77.50;;;;;;5047993;28;20056;-66
2022/08/12 01:38:55;;;;;;;0.00;0.00;;;19.50;77.70;;;;;;5049573;28;20412;-66
2022/08/12 01:41:24;;;;;;;0.00;0.00;;;19.40;78.00;;;;;;5049546;28;20045;-66
2022/08/12 01:43:52;;;;;;;0.10;0.10;;;19.40;78.10;;;;;;5055302;28;20082;-66
2022/08/12 01:46:36;;;;;;;0.00;0.00;;;19.40;78.10;;;;;;5060375;28;20095;-67
2022/08/12 01:49:41;;;;;;;0.25;0.25;;;19.30;78.40;;;;;;5068997;28;20052;-66
2022/08/12 01:52:39;;;;;;;0.00;0.00;;;19.30;78.20;;;;;;5068942;28;20056;-67
2022/08/12 01:55:06;;;;;;;0.00;0.00;;;19.20;78.60;;;;;;5062712;28;20044;-66
2022/08/12 01:57:40;;;;;;;0.00;0.00;;;19.20;78.80;;;;;;5067881;28;20040;-66
2022/08/12 02:00:11;;;;;;;0.00;0.00;;;19.10;78.40;;;;;;5069325;28;20083;-66
2022/08/12 02:02:47;;;;;;;0.00;0.00;;;19.10;78.80;;;;;;5069024;28;20045;-66
2022/08/12 02:11:34;;;;;;;0.20;0.20;;;19.00;79.50;;;;;;5049096;28;20057;-66
2022/08/12 02:14:37;;;;;;;0.10;0.10;;;19.00;79.70;;;;;;5069200;28;20489;-67
2022/08/12 02:17:27;;;;;;;0.05;0.05;;;19.00;79.70;;;;;;5069428;28;20044;-66
2022/08/12 02:20:12;;;;;;;0.00;0.00;;;18.90;80.00;;;;;;5069313;28;20112;-66
2022/08/12 02:22:43;;;;;;;0.30;0.30;;;18.90;79.80;;;;;;5065406;28;20041;-66
2022/08/12 02:25:32;;;;;;;0.03;0.03;;;18.90;79.90;;;;;;5061566;28;21122;-66
2022/08/12 02:27:59;;;;;;;0.00;0.00;;;19.00;80.40;;;;;;5069115;28;20040;-66
2022/08/12 02:30:31;;;;;;;0.47;0.40;;;18.90;80.10;;;;;;5068892;28;20115;-66
2022/08/12 02:32:59;;;;;;;0.00;0.00;;;18.90;80.40;;;;;;5056141;28;20044;-66
2022/08/12 02:35:28;;;;;;;0.00;0.00;;;18.90;80.60;;;;;;5048861;28;20569;-66
2022/08/12 02:37:58;;;;;;;0.00;0.00;;;18.90;80.50;;;;;;5050731;28;20052;-66
2022/08/12 02:40:28;;;;;;;0.03;0.03;;;18.90;80.50;;;;;;5053161;28;20091;-66
2022/08/12 02:43:20;;;;;;;0.00;0.00;;;18.80;80.80;;;;;;5068522;28;20405;-66
2022/08/12 02:46:08;;;;;;;0.00;0.00;;;18.80;80.80;;;;;;5069406;28;20147;-66
2022/08/12 02:48:50;;;;;;;0.00;0.00;;;18.80;81.00;;;;;;5072612;28;20629;-66
2022/08/12 02:51:19;;;;;;;0.00;0.00;;;18.80;80.90;;;;;;5072613;28;20076;-66
2022/08/12 02:53:45;;;;;;;0.00;0.00;;;18.80;81.20;;;;;;5072353;28;20493;-66
2022/08/12 02:56:11;;;;;;;0.00;0.00;;;18.80;80.80;;;;;;5072208;28;20052;-66
2022/08/12 02:58:37;;;;;;;0.00;0.00;;;18.80;81.00;;;;;;5065404;28;20087;-67
2022/08/12 03:01:09;;;;;;;0.00;0.00;;;18.80;81.10;;;;;;5051416;28;20088;-66
2022/08/12 03:03:35;;;;;;;0.08;0.08;;;18.80;81.30;;;;;;5052578;28;20033;-66
2022/08/12 03:06:13;;;;;;;0.00;0.00;;;18.80;81.70;;;;;;5053169;28;20080;-66
2022/08/12 03:08:42;;;;;;;0.00;0.00;;;18.70;81.70;;;;;;5052358;28;20402;-66
2022/08/12 03:11:33;;;;;;;0.00;0.00;;;18.70;81.80;;;;;;5052165;28;20075;-66
2022/08/12 03:14:00;;;;;;;0.00;0.00;;;18.70;82.00;;;;;;5054816;28;20053;-66
2022/08/12 03:16:29;;;;;;;0.00;0.00;;;18.70;82.20;;;;;;5058476;28;20086;-66
2022/08/12 03:18:55;;;;;;;0.00;0.00;;;18.70;82.10;;;;;;5052805;28;20090;-67
2022/08/12 03:21:23;;;;;;;0.00;0.00;;;18.70;82.10;;;;;;5071655;28;20103;-66
2022/08/12 03:23:52;;;;;;;0.00;0.00;;;18.80;82.20;;;;;;5071869;28;20617;-66
2022/08/12 03:26:20;;;;;;;0.00;0.00;;;18.70;82.40;;;;;;5071865;28;20091;-66
2022/08/12 03:28:49;;;;;;;0.00;0.00;;;18.80;82.40;;;;;;5071860;28;20139;-66
2022/08/12 03:31:17;;;;;;;0.00;0.00;;;18.70;82.50;;;;;;5069457;28;20497;-66
2022/08/12 03:33:45;;;;;;;0.00;0.00;;;18.80;82.50;;;;;;5051652;28;20083;-66
2022/08/12 03:36:19;;;;;;;0.00;0.00;;;18.80;82.70;;;;;;5051649;28;20387;-66
2022/08/12 03:39:18;;;;;;;0.10;0.10;;;18.80;82.70;;;;;;5051437;28;20087;-66
2022/08/12 03:41:43;;;;;;;0.00;0.00;;;18.90;82.60;;;;;;5051515;28;20045;-66
2022/08/12 04:00:48;;;;;;;0.00;0.00;;;18.90;83.00;;;;;;5051439;28;20045;-67
2022/08/12 04:05:58;;;;;;;0.00;0.00;;;19.00;83.10;;;;;;5050936;28;20060;-66
2022/08/12 04:08:25;;;;;;;0.00;0.00;;;18.90;82.90;;;;;;5058160;28;20508;-67
2022/08/12 04:13:39;;;;;;;0.00;0.00;;;19.00;82.80;;;;;;5071301;28;20833;-67
2022/08/12 04:16:09;;;;;;;0.00;0.00;;;18.90;83.20;;;;;;5070712;28;20048;-66
2022/08/12 04:18:37;;;;;;;0.20;0.20;;;19.00;82.90;;;;;;5070968;28;20062;-67
2022/08/12 04:21:09;;;;;;;0.00;0.00;;;19.00;83.20;;;;;;5070330;28;20084;-67
2022/08/12 04:23:41;;;;;;;0.00;0.00;;;19.00;83.10;;;;;;5070942;28;20045;-66
2022/08/12 04:26:07;;;;;;;0.00;0.00;;;19.00;82.80;;;;;;5070805;28;20060;-67
2022/08/12 04:28:32;;;;;;;0.00;0.00;;;19.00;82.60;;;;;;5070849;28;20049;-67
2022/08/12 04:30:58;;;;;;;0.00;0.00;;;19.00;82.40;;;;;;5070667;28;20090;-66
2022/08/12 04:33:25;;;;;;;0.00;0.00;;;19.00;82.30;;;;;;5070440;28;20045;-67
2022/08/12 04:35:52;;;;;;;0.00;0.00;;;19.00;82.60;;;;;;5071002;28;20129;-66
2022/08/12 04:38:18;;;;;;;0.00;0.00;;;19.00;82.40;;;;;;5072474;28;20056;-66
2022/08/12 04:40:45;;;;;;;0.00;0.00;;;19.00;82.50;;;;;;5069961;28;20041;-66
2022/08/12 04:43:11;;;;;;;0.00;0.00;;;19.00;82.50;;;;;;5070469;28;20110;-66
2022/08/12 04:45:38;;;;;;;0.00;0.00;;;19.10;82.50;;;;;;5070559;28;20056;-66
2022/08/12 04:48:04;;;;;;;0.00;0.00;;;19.10;82.40;;;;;;5069950;28;20036;-66
2022/08/12 04:50:31;;;;;;;0.00;0.00;;;19.10;82.00;;;;;;5056118;28;20552;-66
2022/08/12 04:53:00;;;;;;;0.00;0.00;;;19.10;82.10;;;;;;5050116;28;20052;-66
2022/08/12 04:55:26;;;;;;;0.00;0.00;;;19.10;82.00;;;;;;5053803;28;20405;-66
2022/08/12 04:57:53;;;;;;;0.10;0.10;;;19.10;81.70;;;;;;5050268;28;20116;-66
2022/08/12 05:00:20;;;;;;;0.00;0.00;;;19.10;81.70;;;;;;5056707;28;20544;-66
2022/08/12 05:02:45;;;;;;;0.00;0.00;;;19.10;81.70;;;;;;5068549;28;20043;-67
2022/08/12 05:05:21;;;;;;;0.00;0.00;;;19.10;81.60;;;;;;5069500;28;20474;-66
2022/08/12 05:07:47;;;;;;;0.08;0.08;;;19.10;81.40;;;;;;5054838;28;20090;-66
2022/08/12 05:10:13;;;;;;;0.00;0.00;;;19.10;81.50;;;;;;5059292;28;20043;-66
2022/08/12 05:12:43;;;;;;;0.00;0.00;;;19.10;81.40;;;;;;5059110;28;20037;-67
2022/08/12 05:15:12;;;;;;;0.00;0.00;;;19.10;81.50;;;;;;5068298;28;20040;-66
2022/08/12 05:17:39;;;;;;;0.00;0.00;;;19.10;81.40;;;;;;5068777;28;20044;-67
2022/08/12 05:20:08;;;;;;;0.00;0.00;;;19.10;81.60;;;;;;5053045;28;20040;-67
2022/08/12 05:22:34;;;;;;;0.00;0.00;;;19.10;81.60;;;;;;5058618;28;20057;-66
2022/08/12 05:25:00;;;;;;;0.00;0.00;;;19.20;81.50;;;;;;5057711;28;20409;-67
2022/08/12 05:27:26;;;;;;;0.00;0.00;;;19.20;81.50;;;;;;5049505;28;20041;-66
2022/08/12 05:29:51;;;;;;;0.00;0.00;;;19.30;81.30;;;;;;5053472;28;20041;-67
2022/08/12 05:32:19;;;;;;;0.00;0.00;;;19.30;81.00;;;;;;5049604;28;20044;-67
2022/08/12 05:34:46;;;;;;;0.00;0.00;;;19.30;80.90;;;;;;5054192;28;20397;-66
2022/08/12 05:37:13;;;;;;;0.00;0.00;;;19.30;80.80;;;;;;5056420;28;20041;-66
2022/08/12 05:39:38;;;;;;;0.00;0.00;;;19.40;80.80;;;;;;5066437;28;20416;-67
2022/08/12 05:42:04;;;;;;;0.00;0.00;;;19.40;80.70;;;;;;5069357;28;20044;-67
2022/08/12 05:44:30;;;;;;;0.00;0.00;;;19.40;80.60;;;;;;5056049;28;20048;-67
2022/08/12 05:46:55;;;;;;;0.00;0.00;;;19.50;80.40;;;;;;5049360;28;20055;-67
2022/08/12 05:49:21;;;;;;;0.20;0.20;;;19.50;80.30;;;;;;5052279;28;20083;-66
2022/08/12 05:51:47;;;;;;;0.00;0.00;;;19.50;80.40;;;;;;5049408;28;20041;-67
2022/08/12 05:54:12;;;;;;;0.00;0.00;;;19.60;80.50;;;;;;5049762;28;20033;-67
2022/08/12 05:56:40;;;;;;;0.00;0.00;;;19.60;80.40;;;;;;5057943;28;20106;-67
2022/08/12 05:59:08;;;;;;;0.00;0.00;;;19.60;80.40;;;;;;5065768;28;20123;-67
2022/08/12 06:01:34;;;;;;;0.00;0.00;;;19.70;80.50;;;;;;5057335;28;20533;-67
2022/08/12 06:03:59;;;;;;;0.00;0.00;;;19.70;80.40;;;;;;5066871;28;20044;-66
2022/08/12 06:06:25;;;;;;;0.00;0.00;;;19.80;80.20;;;;;;5067576;28;20412;-67
2022/08/12 06:08:52;;;;;;;0.00;0.00;;;19.90;80.10;;;;;;5067959;28;20078;-68
2022/08/12 06:11:23;;;;;;;0.00;0.00;;;20.00;80.00;;;;;;5069446;28;21247;-67
2022/08/12 06:13:49;;;;;;;0.00;0.00;;;20.10;79.70;;;;;;5073439;28;20512;-67
2022/08/12 06:16:17;;;;;;;0.00;0.00;;;20.10;79.50;;;;;;5072667;28;20043;-67
2022/08/12 06:18:43;;;;;;;0.00;0.00;;;20.20;79.40;;;;;;5055896;28;20053;-67
2022/08/12 06:21:15;;;;;;;0.00;0.00;;;20.20;79.20;;;;;;5053395;28;20045;-68
2022/08/12 06:23:42;;;;;;;0.00;0.00;;;20.30;78.90;;;;;;5053004;28;20049;-67
2022/08/12 06:26:10;;;;;;;0.00;0.00;;;20.30;78.60;;;;;;5053102;28;20045;-66
2022/08/12 06:28:43;;;;;;;0.00;0.00;;;20.40;78.50;;;;;;5052782;28;20041;-67
2022/08/12 06:31:14;;;;;;;0.00;0.00;;;20.40;78.30;;;;;;5053829;28;20077;-67
2022/08/12 06:33:43;;;;;;;0.00;0.00;;;20.40;78.20;;;;;;5072795;28;20048;-67
2022/08/12 06:36:12;;;;;;;0.00;0.00;;;20.50;78.00;;;;;;5072660;28;20044;-67
2022/08/12 06:38:39;;;;;;;0.00;0.00;;;20.50;77.90;;;;;;5072565;28;20036;-67
2022/08/12 06:43:50;;;;;;;0.00;0.00;;;20.60;77.80;;;;;;5069754;28;20057;-67
2022/08/12 06:46:16;;;;;;;0.10;0.10;;;20.60;77.80;;;;;;5052709;28;20045;-68
2022/08/12 06:48:42;;;;;;;0.00;0.00;;;20.70;77.70;;;;;;5059375;28;20143;-68
2022/08/12 06:51:09;;;;;;;0.00;0.00;;;20.60;77.50;;;;;;5058283;28;20048;-67
2022/08/12 06:53:35;;;;;;;0.00;0.00;;;20.70;77.50;;;;;;5063556;28;20041;-68
2022/08/12 06:56:01;;;;;;;0.00;0.00;;;20.70;77.40;;;;;;5063630;28;20792;-68
2022/08/12 06:58:28;;;;;;;0.00;0.00;;;20.80;77.40;;;;;;5056494;28;20032;-67
2022/08/12 07:00:56;;;;;;;0.00;0.00;;;20.80;77.30;;;;;;5063359;28;20041;-68
2022/08/12 07:03:27;;;;;;;0.00;0.00;;;20.80;77.20;;;;;;5065371;28;20134;-68
2022/08/12 07:06:01;;;;;;;0.00;0.00;;;20.90;77.00;;;;;;5052755;28;20056;-68
2022/08/12 07:08:29;;;;;;;0.05;0.05;;;20.90;76.90;;;;;;5051682;28;20379;-68
2022/08/12 07:11:04;;;;;;;0.00;0.00;;;20.90;76.70;;;;;;5051970;28;20500;-68
2022/08/12 07:13:44;;;;;;;0.00;0.00;;;21.00;76.70;;;;;;5053175;28;20053;-68
2022/08/12 07:16:13;;;;;;;0.00;0.00;;;21.10;76.70;;;;;;5052365;28;20595;-68
2022/08/12 07:18:41;;;;;;;0.00;0.00;;;21.10;76.70;;;;;;5064848;28;20059;-68
2022/08/12 07:21:07;;;;;;;0.55;0.55;;;21.20;76.50;;;;;;5066833;28;20045;-68
2022/08/12 07:23:35;;;;;;;0.00;0.00;;;21.20;76.30;;;;;;5066789;28;20130;-67
2022/08/12 07:26:02;;;;;;;0.00;0.00;;;21.30;76.20;;;;;;5071630;28;20071;-68
2022/08/12 07:28:32;;;;;;;0.00;0.00;;;21.30;76.00;;;;;;5062459;28;20633;-68
2022/08/12 07:30:59;;;;;;;0.00;0.00;;;21.40;76.00;;;;;;5059480;28;20123;-67
2022/08/12 07:33:27;;;;;;;0.00;0.00;;;21.50;75.80;;;;;;5054120;28;20501;-68
2022/08/12 07:35:54;;;;;;;0.00;0.00;;;21.50;75.50;;;;;;5051618;28;20043;-68
2022/08/12 07:38:32;;;;;;;0.00;0.00;;;21.50;75.60;;;;;;5051704;28;20575;-67
2022/08/12 07:41:12;;;;;;;0.00;0.00;;;21.60;75.40;;;;;;5051764;28;20045;-68
2022/08/12 07:43:45;;;;;;;0.00;0.00;;;21.70;75.60;;;;;;5051458;28;20512;-68
2022/08/12 07:46:13;;;;;;;0.00;0.00;;;21.80;75.50;;;;;;5051637;28;20102;-67
2022/08/12 07:48:45;;;;;;;0.00;0.00;;;21.80;75.30;;;;;;5059403;28;20045;-68
2022/08/12 07:51:12;;;;;;;0.00;0.00;;;22.00;74.80;;;;;;5071159;28;20044;-67
2022/08/12 07:53:38;;;;;;;0.00;0.00;;;22.00;74.70;;;;;;5070823;28;20048;-68
2022/08/12 07:56:06;;;;;;;0.00;0.00;;;22.10;74.10;;;;;;5071162;28;20084;-68
2022/08/12 07:58:32;;;;;;;0.00;0.00;;;22.10;74.00;;;;;;5069968;28;20051;-68
2022/08/12 08:01:03;;;;;;;0.00;0.00;;;22.20;74.10;;;;;;5070918;28;20214;-68
2022/08/12 08:03:31;;;;;;;0.00;0.00;;;22.20;73.80;;;;;;5069367;28;20056;-68
2022/08/12 08:05:57;;;;;;;0.00;0.00;;;22.40;73.70;;;;;;5050582;28;20049;-68
2022/08/12 08:08:25;;;;;;;0.00;0.00;;;22.40;73.50;;;;;;5054594;28;20497;-68
2022/08/12 08:12:52;;;;;;;0.00;0.00;;;22.50;73.20;;;;;;5067522;28;20047;-68
2022/08/12 08:13:39;;;;;;;0.00;0.00;;;22.50;72.70;;;;;;5064649;28;20060;-68
2022/08/12 08:16:06;;;;;;;0.00;0.00;;;22.60;72.30;;;;;;5050825;28;20508;-68
2022/08/12 08:18:32;;;;;;;0.10;0.08;;;22.70;71.90;;;;;;5032890;28;20041;-68
2022/08/12 08:20:57;;;;;;;0.00;0.00;;;22.70;71.90;;;;;;5051085;28;20045;-68
2022/08/12 08:24:13;;;;;;;0.00;0.00;;;22.80;71.30;;;;;;5050801;28;20056;-67
2022/08/12 08:26:12;;;;;;;0.00;0.00;;;22.90;71.30;;;;;;5059643;28;20047;-68
2022/08/12 08:28:37;;;;;;;0.00;0.00;;;23.00;70.70;;;;;;5070932;28;20405;-68
2022/08/12 08:31:03;;;;;;;0.00;0.00;;;23.00;70.30;;;;;;5070292;28;20056;-68
2022/08/12 08:33:29;;;;;;;0.00;0.00;;;23.10;70.20;;;;;;5070535;28;20040;-68
2022/08/12 08:35:54;;;;;;;0.15;0.15;;;23.20;70.40;;;;;;5069414;28;20044;-68
2022/08/12 08:38:21;;;;;;;0.00;0.00;;;23.30;70.50;;;;;;5070575;28;20051;-68
2022/08/12 08:43:34;;;;;;;0.00;0.00;;;23.40;69.10;;;;;;5070233;28;20048;-68
2022/08/12 08:46:04;;;;;;;0.00;0.00;;;23.50;69.60;;;;;;5062057;28;20049;-68
2022/08/12 08:48:33;;;;;;;0.00;0.00;;;23.50;69.20;;;;;;5055755;28;20051;-68
2022/08/12 08:51:04;;;;;;;0.00;0.00;;;23.60;68.90;;;;;;5055978;28;20059;-68
2022/08/12 08:53:30;;;;;;;;;;;23.70;68.40;;;;;;5056869;28;20052;-68
2022/08/12 08:55:57;;;;;;;0.00;0.00;;;23.70;69.60;;;;;;5055408;28;19920;-68
2022/08/12 08:58:23;;;;;;;0.00;0.00;;;23.80;69.00;;;;;;5058625;28;20079;-68
2022/08/12 09:00:49;;;;;;;0.10;0.10;;;23.90;69.00;;;;;;5060635;28;20490;-67
2022/08/12 09:03:16;;;;;;;0.00;0.00;;;24.00;68.50;;;;;;5058438;28;20047;-68
2022/08/12 09:05:41;;;;;;;0.00;0.00;;;24.00;68.30;;;;;;5055200;28;20150;-68
2022/08/12 09:08:08;;;;;;;0.00;0.00;;;24.10;67.80;;;;;;5055062;28;20057;-67
2022/08/12 09:10:34;;;;;;;0.05;0.03;;;24.20;67.50;;;;;;5058477;28;20069;-68
2022/08/12 09:15:46;;;;;;;0.00;0.00;;;24.40;67.10;;;;;;5055755;28;20452;-68
2022/08/12 09:18:13;;;;;;;0.00;0.00;;;24.40;67.30;;;;;;5062303;28;20041;-68
2022/08/12 09:20:39;;;;;;;0.00;0.00;;;24.50;66.00;;;;;;5061089;28;20081;-67
2022/08/12 09:23:09;;;;;;;0.00;0.00;;;24.60;66.50;;;;;;5061080;28;20401;-68
2022/08/12 09:25:37;;;;;;;0.00;0.00;;;24.70;65.10;;;;;;5055306;28;20064;-68
2022/08/12 09:28:03;;;;;;;0.00;0.00;;;24.80;66.10;;;;;;5055195;28;20047;-67
2022/08/12 09:30:29;;;;;;;0.00;0.00;;;24.90;65.70;;;;;;5059320;28;20044;-67
2022/08/12 09:32:55;;;;;;;0.00;0.00;;;25.00;65.10;;;;;;5067390;28;20037;-67
2022/08/12 09:35:26;;;;;;;0.00;0.00;;;25.00;64.10;;;;;;5068680;28;20401;-68
2022/08/12 09:37:55;;;;;;;0.00;0.00;;;25.10;64.60;;;;;;5059331;28;20056;-67
2022/08/12 09:40:23;;;;;;;0.00;0.00;;;25.10;64.80;;;;;;5049547;28;20444;-67
2022/08/12 09:45:35;;;;;;;0.00;0.00;;;25.30;64.20;;;;;;5049043;28;20053;-67
2022/08/12 09:48:07;;;;;;;0.00;0.00;;;25.50;62.70;;;;;;5049020;28;20053;-67
2022/08/12 09:50:34;;;;;;;0.00;0.00;;;25.50;62.50;;;;;;5049744;28;20045;-67
2022/08/12 09:53:12;;;;;;;0.00;0.00;;;25.50;62.30;;;;;;5050275;28;20820;-67
2022/08/12 09:55:42;;;;;;;0.00;0.00;;;25.70;62.10;;;;;;5059717;28;20490;-67
2022/08/12 09:58:08;;;;;;;0.00;0.00;;;25.80;61.50;;;;;;5048139;28;20081;-67
2022/08/12 10:00:34;;;;;;;0.00;0.00;;;25.80;59.60;;;;;;5049224;28;20145;-67
2022/08/12 10:03:09;;;;;;;0.10;0.10;;;25.90;59.60;;;;;;5060530;28;20059;-67
2022/08/12 10:05:42;;;;;;;0.00;0.00;;;26.00;61.80;;;;;;5063154;28;20063;-67
2022/08/12 10:08:10;;;;;;;0.00;0.00;;;26.10;61.10;;;;;;5052692;28;20041;-67
2022/08/12 10:13:41;;;;;;;0.00;0.00;;;26.30;61.10;;;;;;5049048;28;20053;-67
2022/08/12 10:16:20;;;;;;;0.20;0.20;;;26.40;61.30;;;;;;5057801;28;20046;-67
2022/08/12 10:18:58;;;;;;;0.00;0.00;;;26.50;60.00;;;;;;5069182;28;20093;-67
2022/08/12 10:21:35;;;;;;;0.00;0.00;;;26.50;58.80;;;;;;5048794;28;20053;-67
2022/08/12 10:24:03;;;;;;;0.10;0.10;;;26.50;57.00;;;;;;5049039;28;20068;-67
2022/08/12 10:31:59;;;;;;;0.08;0.00;;;26.80;57.40;;;;;;5068740;28;20784;-67
2022/08/12 10:34:25;;;;;;;0.00;0.00;;;26.90;56.10;;;;;;5068931;28;20083;-67
2022/08/12 10:36:57;;;;;;;2.03;0.45;;;27.00;56.00;;;;;;5068982;28;20040;-67
2022/08/12 10:39:24;;;;;;;0.00;0.00;;;27.00;55.50;;;;;;5069093;28;20032;-68
2022/08/12 10:44:35;;;;;;;0.00;0.00;;;27.30;55.40;;;;;;5068391;28;20048;-67
2022/08/12 10:47:01;;;;;;;0.00;0.00;;;27.30;55.00;;;;;;5067571;28;20052;-67
2022/08/12 10:49:33;;;;;;;0.00;0.00;;;27.40;52.90;;;;;;5055635;28;20068;-67
2022/08/12 10:52:01;;;;;;;0.00;0.00;;;27.50;53.70;;;;;;5049725;28;20057;-67
2022/08/12 10:54:27;;;;;;;0.05;0.03;;;27.50;53.90;;;;;;5047942;28;20084;-68
2022/08/12 10:56:54;;;;;;;0.00;0.00;;;27.60;51.60;;;;;;5048692;28;20132;-67
2022/08/12 10:59:20;;;;;;;0.00;0.00;;;27.70;52.30;;;;;;5051299;28;20048;-68
2022/08/12 11:01:56;;;;;;;0.00;0.00;;;27.80;51.60;;;;;;5052332;28;20053;-67
2022/08/12 11:04:23;;;;;;;0.00;0.00;;;27.80;50.50;;;;;;5052504;28;20041;-67
2022/08/12 11:06:52;;;;;;;0.00;0.00;;;27.90;51.30;;;;;;5052234;28;20055;-67
2022/08/12 11:09:20;;;;;;;0.00;0.00;;;28.00;49.40;;;;;;5052071;28;20091;-68
2022/08/12 11:11:50;;;;;;;0.55;0.55;;;28.10;51.70;;;;;;5052323;28;20068;-67
2022/08/12 11:14:17;;;;;;;0.00;0.00;;;28.10;50.20;;;;;;5051885;28;20116;-67
2022/08/12 11:16:44;;;;;;;0.05;0.05;;;28.10;48.40;;;;;;5052366;28;20041;-67
2022/08/12 11:19:11;;;;;;;0.00;0.00;;;28.20;47.00;;;;;;5052167;28;20404;-67
2022/08/12 11:21:37;;;;;;;0.00;0.00;;;28.20;47.40;;;;;;5051966;28;20497;-67
2022/08/12 11:24:03;;;;;;;0.13;0.10;;;28.30;47.90;;;;;;5052076;28;20053;-67
2022/08/12 11:26:29;;;;;;;0.03;0.03;;;28.30;46.10;;;;;;5051669;28;20041;-68
2022/08/12 11:28:54;;;;;;;0.00;0.00;;;28.50;48.20;;;;;;5051761;28;20052;-68
2022/08/12 11:31:20;;;;;;;0.00;0.00;;;28.50;48.70;;;;;;5052080;28;20143;-67
2022/08/12 11:33:48;;;;;;;0.00;0.00;;;28.50;47.70;;;;;;5051860;28;20444;-67
2022/08/12 11:36:14;;;;;;;0.03;0.03;;;28.60;47.60;;;;;;5051292;28;20036;-67
2022/08/12 11:38:40;;;;;;;7.22;0.60;;;28.70;47.70;;;;;;5061452;28;20045;-67
2022/08/12 11:41:05;;;;;;;0.00;0.00;;;28.70;47.90;;;;;;5071083;28;20363;-67
2022/08/12 11:43:31;;;;;;;0.00;0.00;;;28.70;47.20;;;;;;5065824;28;20040;-67
2022/08/12 11:45:58;;;;;;;0.00;0.00;;;28.80;47.00;;;;;;5061709;28;20041;-67
2022/08/12 11:48:23;;;;;;;0.00;0.00;;;28.80;46.70;;;;;;5064320;28;20068;-67
2022/08/12 11:50:49;;;;;;;0.00;0.00;;;29.00;45.40;;;;;;5060155;28;20060;-67
2022/08/12 11:53:15;;;;;;;0.73;0.73;;;29.00;44.20;;;;;;5059692;28;20032;-66
2022/08/12 11:55:41;;;;;;;0.00;0.00;;;29.00;44.40;;;;;;5056102;28;20052;-67
2022/08/12 11:58:07;;;;;;;0.10;0.10;;;29.10;45.00;;;;;;5063063;28;20039;-67
2022/08/12 12:00:32;;;;;;;0.00;0.00;;;29.10;44.40;;;;;;5059882;28;20044;-67
2022/08/12 12:02:58;;;;;;;0.10;0.10;;;29.10;45.10;;;;;;5060227;28;20039;-67
2022/08/12 12:05:23;;;;;;;0.00;0.00;;;29.20;44.50;;;;;;5060957;28;20051;-67
2022/08/12 12:07:49;;;;;;;0.00;0.00;;;29.30;44.70;;;;;;5059763;28;20121;-67
2022/08/12 12:10:18;;;;;;;0.10;0.10;;;29.40;43.10;;;;;;5063047;28;20068;-67
2022/08/12 12:12:44;;;;;;;0.00;0.00;;;29.50;43.60;;;;;;5071094;28;20119;-67
2022/08/12 12:15:11;;;;;;;0.00;0.00;;;29.60;41.00;;;;;;5051333;28;20048;-67
2022/08/12 12:17:38;;;;;;;0.00;0.00;;;29.60;43.00;;;;;;5050857;28;20037;-67
2022/08/12 12:20:08;;;;;;;0.00;0.00;;;29.70;41.80;;;;;;5050728;28;20041;-67
2022/08/12 12:22:35;;;;;;;0.00;0.00;;;29.80;42.10;;;;;;5050706;28;20045;-67
2022/08/12 12:25:00;;;;;;;0.00;0.00;;;29.90;43.30;;;;;;5049589;28;20045;-67
2022/08/12 12:27:26;;;;;;;0.00;0.00;;;29.90;43.50;;;;;;5051582;28;20489;-67
2022/08/12 12:29:56;;;;;;;0.75;0.75;;;30.00;43.30;;;;;;5051182;28;20332;-67
2022/08/12 12:32:21;;;;;;;0.00;0.00;;;30.10;42.90;;;;;;5066283;28;20086;-67
2022/08/12 12:34:47;;;;;;;0.00;0.00;;;30.10;42.80;;;;;;5070950;28;20072;-67
2022/08/12 12:37:12;;;;;;;0.10;0.10;;;30.10;40.90;;;;;;5069627;28;20060;-67
2022/08/12 12:39:42;;;;;;;0.20;0.20;;;30.20;42.30;;;;;;5065813;28;20458;-67
2022/08/12 12:42:07;;;;;;;0.10;0.10;;;30.20;41.10;;;;;;5055477;28;20053;-67
2022/08/12 12:44:33;;;;;;;0.38;0.38;;;30.30;40.70;;;;;;5051820;28;20040;-67
2022/08/12 12:46:58;;;;;;;0.13;0.13;;;30.30;41.50;;;;;;5069876;28;20048;-67
2022/08/12 12:49:24;;;;;;;0.00;0.00;;;30.40;40.10;;;;;;5069365;28;20041;-67
2022/08/12 12:51:50;;;;;;;0.10;0.10;;;30.30;40.60;;;;;;5068280;28;20497;-67
2022/08/12 12:54:15;;;;;;;0.10;0.10;;;30.30;40.20;;;;;;5065139;28;20036;-67
2022/08/12 12:56:43;;;;;;;0.10;0.10;;;30.40;40.30;;;;;;5069277;28;20048;-67
2022/08/12 12:59:08;;;;;;;0.00;0.00;;;30.40;39.30;;;;;;5069582;28;20041;-67
2022/08/12 13:01:37;;;;;;;0.05;0.05;;;30.50;39.40;;;;;;5068673;28;20089;-67
2022/08/12 13:04:06;;;;;;;0.00;0.00;;;30.40;39.40;;;;;;5060640;28;20102;-67
2022/08/12 13:06:32;;;;;;;0.00;0.00;;;30.50;38.20;;;;;;5054286;28;20049;-67
2022/08/12 13:09:00;;;;;;;0.00;0.00;;;30.50;38.00;;;;;;5064612;28;20041;-66
2022/08/12 13:11:28;;;;;;;0.00;0.00;;;30.60;37.00;;;;;;5054990;28;20052;-67
2022/08/12 13:13:55;;;;;;;0.00;0.00;;;30.70;38.40;;;;;;5051325;28;20060;-67
2022/08/12 13:16:21;;;;;;;0.00;0.00;;;30.70;39.50;;;;;;5070090;28;20051;-67
2022/08/12 13:18:52;;;;;;;0.08;0.08;;;30.80;38.40;;;;;;5069534;28;20500;-67
2022/08/12 13:21:18;;;;;;;0.20;0.10;;;30.80;38.50;;;;;;5065977;28;20032;-67
2022/08/12 13:23:45;;;;;;;0.10;0.10;;;30.80;37.70;;;;;;5060020;28;20762;-67
2022/08/12 13:26:16;;;;;;;0.00;0.00;;;30.90;37.80;;;;;;5051945;28;20057;-67
2022/08/12 13:28:49;;;;;;;0.00;0.00;;;30.90;37.40;;;;;;5056047;28;20155;-67
2022/08/12 13:31:15;;;;;;;0.10;0.10;;;31.00;38.00;;;;;;5069641;28;20044;-67
2022/08/12 13:33:41;;;;;;;0.10;0.10;;;31.00;36.90;;;;;;5059998;28;20060;-67
2022/08/12 13:36:09;;;;;;;0.20;0.20;;;31.00;37.60;;;;;;5049462;28;20099;-67
2022/08/12 13:38:37;;;;;;;0.00;0.00;;;31.10;36.60;;;;;;5054318;28;20048;-67
2022/08/12 13:41:04;;;;;;;0.00;0.00;;;31.10;37.20;;;;;;5057840;28;20048;-67
2022/08/12 13:43:31;;;;;;;0.10;0.10;;;31.30;36.90;;;;;;5069053;28;20492;-67
2022/08/12 13:45:58;;;;;;;0.00;0.00;;;31.40;36.70;;;;;;5063587;28;20045;-67
2022/08/12 13:48:24;;;;;;;0.00;0.00;;;31.40;36.10;;;;;;5048812;28;20135;-67
2022/08/12 13:50:49;;;;;;;0.00;0.00;;;31.40;35.80;;;;;;5049274;28;20041;-68
2022/08/12 13:53:17;;;;;;;0.00;0.00;;;31.40;35.30;;;;;;5049996;28;20052;-67
2022/08/12 13:55:44;;;;;;;0.00;0.00;;;31.40;35.80;;;;;;5051314;28;20057;-67
2022/08/12 13:58:15;;;;;;;0.00;0.00;;;31.50;34.90;;;;;;5064793;28;20049;-67
2022/08/12 14:00:45;;;;;;;0.00;0.00;;;31.50;35.10;;;;;;5066250;28;20148;-67
2022/08/12 14:03:13;;;;;;;0.05;0.05;;;31.50;35.70;;;;;;5048773;28;20140;-67
2022/08/12 14:05:39;;;;;;;0.00;0.00;;;31.60;35.10;;;;;;5048608;28;20033;-68
2022/08/12 14:08:11;;;;;;;0.10;0.10;;;31.60;34.90;;;;;;5051035;28;20094;-67
2022/08/12 14:10:39;;;;;;;0.00;0.00;;;31.70;34.70;;;;;;5057728;28;20095;-67
2022/08/12 14:13:10;;;;;;;0.32;0.20;;;31.70;36.20;;;;;;5054268;28;20104;-67
2022/08/12 14:15:40;;;;;;;5.93;0.70;;;31.80;36.90;;;;;;5063831;28;20041;-67
2022/08/12 14:18:17;;;;;;;0.00;0.00;;;31.70;38.30;;;;;;5069911;28;20044;-67
2022/08/12 14:20:45;;;;;;;0.00;0.00;;;31.70;39.30;;;;;;5070077;28;20483;-67
2022/08/12 14:23:12;;;;;;;0.28;0.25;;;31.80;39.20;;;;;;5069184;28;20485;-67
2022/08/12 14:25:42;;;;;;;0.00;0.00;;;31.80;38.80;;;;;;5054109;28;20049;-68
2022/08/12 14:28:18;;;;;;;0.85;0.20;;;31.70;39.50;;;;;;5049311;28;20041;-68
2022/08/12 14:30:59;;;;;;;0.20;0.20;;;31.70;39.70;;;;;;5050233;28;20072;-68
2022/08/12 14:33:32;;;;;;;0.70;0.63;;;31.50;40.00;;;;;;5053379;28;20110;-68
2022/08/12 14:35:59;;;;;;;0.00;0.00;;;31.50;40.60;;;;;;5072837;28;20124;-67
2022/08/12 14:38:27;;;;;;;1.02;0.57;;;31.50;40.60;;;;;;5063533;28;20095;-67
2022/08/12 14:40:58;;;;;;;0.00;0.00;;;31.60;40.20;;;;;;5052859;28;20052;-67